sensor_id;sensor_type;location;lat;lon;timestamp;temperature;humidity
8172;DHT22;4127;47.908;10.850;2022-12-11T00:00:08;-1.90;99.90
8172;DHT22;4127;47.908;10.850;2022-12-11T00:02:35;-2.00;99.90
8172;DHT22;4127;47.908;10.850;2022-12-11T00:05:02;-2.00;99.90
8172;DHT22;4127;47.908;10.850;2022-12-11T00:07:29;-2.10;99.90
8172;DHT22;4127;47.908;10.850;2022-12-11T00:09:56;-2.10;99.90
8172;DHT22;4127;47.908;10.850;2022-12-11T00:12:23;-2.20;99.90
8172;DHT22;4127;47.908;10.850;2022-12-11T00:14:49;-2.10;99.90
8172;DHT22;4127;47.908;10.850;2022-12-11T00:17:16;-2.10;99.90
8172;DHT22;4127;47.908;10.850;2022-12-11T00:19:43;-2.10;99.90
8172;DHT22;4127;47.908;10.850;2022-12-11T00:22:10;-2.10;99.90
8172;DHT22;4127;47.908;10.850;2022-12-11T00:24:36;-2.10;99.90
8172;DHT22;4127;47.908;10.850;2022-12-11T00:27:03;-2.10;99.90
8172;DHT22;4127;47.908;10.850;2022-12-11T00:29:30;-2.10;99.90
8172;DHT22;4127;47.908;10.850;2022-12-11T00:31:56;-2.20;99.90
8172;DHT22;4127;47.908;10.850;2022-12-11T00:34:23;-2.10;99.90
8172;DHT22;4127;47.908;10.850;2022-12-11T00:36:50;-2.10;99.90
8172;DHT22;4127;47.908;10.850;2022-12-11T00:39:18;-2.10;99.90
8172;DHT22;4127;47.908;10.850;2022-12-11T00:41:45;-2.20;99.90
8172;DHT22;4127;47.908;10.850;2022-12-11T00:44:11;-2.20;99.90
8172;DHT22;4127;47.908;10.850;2022-12-11T00:46:38;-2.20;99.90
8172;DHT22;4127;47.908;10.850;2022-12-11T00:49:05;-2.20;99.90
8172;DHT22;4127;47.908;10.850;2022-12-11T00:51:31;-2.30;99.90
8172;DHT22;4127;47.908;10.850;2022-12-11T00:53:58;-2.20;99.90
8172;DHT22;4127;47.908;10.850;2022-12-11T00:56:25;-2.20;99.90
8172;DHT22;4127;47.908;10.850;2022-12-11T00:58:52;-2.10;99.90
8172;DHT22;4127;47.908;10.850;2022-12-11T01:01:21;-2.20;99.90
8172;DHT22;4127;47.908;10.850;2022-12-11T01:03:49;-2.20;99.90
8172;DHT22;4127;47.908;10.850;2022-12-11T01:06:21;-2.30;99.90
8172;DHT22;4127;47.908;10.850;2022-12-11T01:08:49;-2.30;99.90
8172;DHT22;4127;47.908;10.850;2022-12-11T01:11:36;-2.30;99.90
8172;DHT22;4127;47.908;10.850;2022-12-11T01:14:03;-2.40;99.90
8172;DHT22;4127;47.908;10.850;2022-12-11T01:16:30;-2.30;99.90
8172;DHT22;4127;47.908;10.850;2022-12-11T01:18:57;-2.30;99.90
8172;DHT22;4127;47.908;10.850;2022-12-11T01:21:24;-2.20;99.90
8172;DHT22;4127;47.908;10.850;2022-12-11T01:23:51;-2.20;99.90
8172;DHT22;4127;47.908;10.850;2022-12-11T01:26:18;-2.20;99.90
8172;DHT22;4127;47.908;10.850;2022-12-11T01:28:48;-2.20;99.90
8172;DHT22;4127;47.908;10.850;2022-12-11T01:31:16;-2.20;99.90
8172;DHT22;4127;47.908;10.850;2022-12-11T01:33:44;-2.40;99.90
8172;DHT22;4127;47.908;10.850;2022-12-11T01:36:19;-2.40;99.90
8172;DHT22;4127;47.908;10.850;2022-12-11T01:38:47;-2.40;99.90
8172;DHT22;4127;47.908;10.850;2022-12-11T01:41:16;-2.40;99.90
8172;DHT22;4127;47.908;10.850;2022-12-11T01:46:30;-2.40;99.90
8172;DHT22;4127;47.908;10.850;2022-12-11T01:48:59;-2.50;99.90
8172;DHT22;4127;47.908;10.850;2022-12-11T01:51:28;-2.50;99.90
8172;DHT22;4127;47.908;10.850;2022-12-11T01:54:01;-2.40;99.90
8172;DHT22;4127;47.908;10.850;2022-12-11T01:56:30;-2.50;99.90
8172;DHT22;4127;47.908;10.850;2022-12-11T01:59:01;-2.40;99.90
8172;DHT22;4127;47.908;10.850;2022-12-11T02:04:03;-2.40;99.90
8172;DHT22;4127;47.908;10.850;2022-12-11T02:06:31;-2.30;99.90
8172;DHT22;4127;47.908;10.850;2022-12-11T02:08:59;-2.30;99.90
8172;DHT22;4127;47.908;10.850;2022-12-11T02:17:33;-2.40;99.90
8172;DHT22;4127;47.908;10.850;2022-12-11T02:22:43;-2.40;99.90
8172;DHT22;4127;47.908;10.850;2022-12-11T02:33:48;-2.50;99.90
8172;DHT22;4127;47.908;10.850;2022-12-11T02:36:17;-2.50;99.90
8172;DHT22;4127;47.908;10.850;2022-12-11T02:38:48;-2.50;99.90
8172;DHT22;4127;47.908;10.850;2022-12-11T02:41:19;-2.50;99.90
8172;DHT22;4127;47.908;10.850;2022-12-11T02:43:47;-2.50;99.90
8172;DHT22;4127;47.908;10.850;2022-12-11T02:46:16;-2.50;99.90
8172;DHT22;4127;47.908;10.850;2022-12-11T02:48:46;-2.50;99.90
8172;DHT22;4127;47.908;10.850;2022-12-11T02:51:16;-2.50;99.90
8172;DHT22;4127;47.908;10.850;2022-12-11T02:53:44;-2.40;99.90
8172;DHT22;4127;47.908;10.850;2022-12-11T02:56:20;-2.40;99.90
8172;DHT22;4127;47.908;10.850;2022-12-11T02:58:54;-2.40;99.90
8172;DHT22;4127;47.908;10.850;2022-12-11T03:01:25;-2.50;99.90
8172;DHT22;4127;47.908;10.850;2022-12-11T03:03:53;-2.50;99.90
8172;DHT22;4127;47.908;10.850;2022-12-11T03:06:24;-2.50;99.90
8172;DHT22;4127;47.908;10.850;2022-12-11T03:08:52;-2.60;99.90
8172;DHT22;4127;47.908;10.850;2022-12-11T03:11:19;-2.60;99.90
8172;DHT22;4127;47.908;10.850;2022-12-11T03:13:46;-2.60;99.90
8172;DHT22;4127;47.908;10.850;2022-12-11T03:19:27;-2.50;99.90
8172;DHT22;4127;47.908;10.850;2022-12-11T03:22:09;-2.50;99.90
8172;DHT22;4127;47.908;10.850;2022-12-11T03:24:45;-2.40;99.90
8172;DHT22;4127;47.908;10.850;2022-12-11T03:27:37;-2.40;99.90
8172;DHT22;4127;47.908;10.850;2022-12-11T03:32:39;-2.50;99.90
8172;DHT22;4127;47.908;10.850;2022-12-11T03:35:24;-2.50;99.90
8172;DHT22;4127;47.908;10.850;2022-12-11T03:37:53;-2.40;99.90
8172;DHT22;4127;47.908;10.850;2022-12-11T03:40:23;-2.40;99.90
8172;DHT22;4127;47.908;10.850;2022-12-11T03:42:52;-2.40;99.90
8172;DHT22;4127;47.908;10.850;2022-12-11T03:45:23;-2.40;99.90
8172;DHT22;4127;47.908;10.850;2022-12-11T03:47:52;-2.50;99.90
8172;DHT22;4127;47.908;10.850;2022-12-11T03:50:21;-2.50;99.90
8172;DHT22;4127;47.908;10.850;2022-12-11T03:52:50;-2.50;99.90
8172;DHT22;4127;47.908;10.850;2022-12-11T03:55:18;-2.50;99.90
8172;DHT22;4127;47.908;10.850;2022-12-11T03:57:46;-2.50;99.90
8172;DHT22;4127;47.908;10.850;2022-12-11T04:00:16;-2.50;99.90
8172;DHT22;4127;47.908;10.850;2022-12-11T04:02:44;-2.50;99.90
8172;DHT22;4127;47.908;10.850;2022-12-11T04:05:10;-2.50;99.90
8172;DHT22;4127;47.908;10.850;2022-12-11T04:07:38;-2.50;99.90
8172;DHT22;4127;47.908;10.850;2022-12-11T04:10:06;-2.50;99.90
8172;DHT22;4127;47.908;10.850;2022-12-11T04:12:32;-2.40;99.90
8172;DHT22;4127;47.908;10.850;2022-12-11T04:14:59;-2.40;99.90
8172;DHT22;4127;47.908;10.850;2022-12-11T04:17:30;-2.50;99.90
8172;DHT22;4127;47.908;10.850;2022-12-11T04:20:15;-2.50;99.90
8172;DHT22;4127;47.908;10.850;2022-12-11T04:23:05;-2.60;99.90
8172;DHT22;4127;47.908;10.850;2022-12-11T04:25:50;-2.60;99.90
8172;DHT22;4127;47.908;10.850;2022-12-11T04:28:16;-2.70;99.90
8172;DHT22;4127;47.908;10.850;2022-12-11T04:30:48;-2.60;99.90
8172;DHT22;4127;47.908;10.850;2022-12-11T04:33:15;-2.60;99.90
8172;DHT22;4127;47.908;10.850;2022-12-11T04:35:42;-2.50;99.90
8172;DHT22;4127;47.908;10.850;2022-12-11T04:38:08;-2.50;99.90
8172;DHT22;4127;47.908;10.850;2022-12-11T04:40:35;-2.60;99.90
8172;DHT22;4127;47.908;10.850;2022-12-11T04:43:02;-2.60;99.90
8172;DHT22;4127;47.908;10.850;2022-12-11T04:45:29;-2.60;99.90
8172;DHT22;4127;47.908;10.850;2022-12-11T04:47:55;-2.60;99.90
8172;DHT22;4127;47.908;10.850;2022-12-11T04:50:22;-2.60;99.90
8172;DHT22;4127;47.908;10.850;2022-12-11T04:52:49;-2.70;99.90
8172;DHT22;4127;47.908;10.850;2022-12-11T04:55:16;-2.60;99.90
8172;DHT22;4127;47.908;10.850;2022-12-11T04:57:43;-2.60;99.90
8172;DHT22;4127;47.908;10.850;2022-12-11T05:00:11;-2.70;99.90
8172;DHT22;4127;47.908;10.850;2022-12-11T05:02:39;-2.70;99.90
8172;DHT22;4127;47.908;10.850;2022-12-11T05:05:08;-2.70;99.90
8172;DHT22;4127;47.908;10.850;2022-12-11T05:07:37;-2.80;99.90
8172;DHT22;4127;47.908;10.850;2022-12-11T05:10:04;-2.80;99.90
8172;DHT22;4127;47.908;10.850;2022-12-11T05:12:31;-2.80;99.90
8172;DHT22;4127;47.908;10.850;2022-12-11T05:14:58;-2.80;99.90
8172;DHT22;4127;47.908;10.850;2022-12-11T05:17:25;-2.80;99.90
8172;DHT22;4127;47.908;10.850;2022-12-11T05:19:52;-2.90;99.90
8172;DHT22;4127;47.908;10.850;2022-12-11T05:22:19;-2.90;99.90
8172;DHT22;4127;47.908;10.850;2022-12-11T05:24:45;-2.80;99.90
8172;DHT22;4127;47.908;10.850;2022-12-11T05:27:12;-2.90;99.90
8172;DHT22;4127;47.908;10.850;2022-12-11T05:29:39;-2.90;99.90
8172;DHT22;4127;47.908;10.850;2022-12-11T05:32:06;-2.80;99.90
8172;DHT22;4127;47.908;10.850;2022-12-11T05:34:32;-2.80;99.90
8172;DHT22;4127;47.908;10.850;2022-12-11T05:36:59;-2.80;99.90
8172;DHT22;4127;47.908;10.850;2022-12-11T05:39:26;-2.80;99.90
8172;DHT22;4127;47.908;10.850;2022-12-11T05:41:53;-2.80;99.90
8172;DHT22;4127;47.908;10.850;2022-12-11T05:44:20;-2.80;99.90
8172;DHT22;4127;47.908;10.850;2022-12-11T05:46:47;-2.80;99.90
8172;DHT22;4127;47.908;10.850;2022-12-11T05:49:15;-2.80;99.90
8172;DHT22;4127;47.908;10.850;2022-12-11T05:51:45;-2.80;99.90
8172;DHT22;4127;47.908;10.850;2022-12-11T05:54:12;-2.80;99.90
8172;DHT22;4127;47.908;10.850;2022-12-11T05:56:39;-2.80;99.90
8172;DHT22;4127;47.908;10.850;2022-12-11T05:59:06;-2.80;99.90
8172;DHT22;4127;47.908;10.850;2022-12-11T06:01:35;-2.80;99.90
8172;DHT22;4127;47.908;10.850;2022-12-11T06:04:03;-2.80;99.90
8172;DHT22;4127;47.908;10.850;2022-12-11T06:06:31;-2.90;99.90
8172;DHT22;4127;47.908;10.850;2022-12-11T06:08:59;-2.90;99.90
8172;DHT22;4127;47.908;10.850;2022-12-11T06:11:28;-3.00;99.90
8172;DHT22;4127;47.908;10.850;2022-12-11T06:13:55;-3.00;99.90
8172;DHT22;4127;47.908;10.850;2022-12-11T06:16:23;-3.00;99.90
8172;DHT22;4127;47.908;10.850;2022-12-11T06:18:50;-3.00;99.90
8172;DHT22;4127;47.908;10.850;2022-12-11T06:21:23;-3.00;99.90
8172;DHT22;4127;47.908;10.850;2022-12-11T06:23:52;-3.00;99.90
8172;DHT22;4127;47.908;10.850;2022-12-11T06:26:20;-3.00;99.90
8172;DHT22;4127;47.908;10.850;2022-12-11T06:28:47;-3.00;99.90
8172;DHT22;4127;47.908;10.850;2022-12-11T06:31:14;-3.00;99.90
8172;DHT22;4127;47.908;10.850;2022-12-11T06:33:41;-3.00;99.90
8172;DHT22;4127;47.908;10.850;2022-12-11T06:36:11;-3.00;99.90
8172;DHT22;4127;47.908;10.850;2022-12-11T06:38:38;-3.10;99.90
8172;DHT22;4127;47.908;10.850;2022-12-11T06:41:06;-3.00;99.90
8172;DHT22;4127;47.908;10.850;2022-12-11T06:43:34;-3.00;99.90
8172;DHT22;4127;47.908;10.850;2022-12-11T06:46:05;-3.10;99.90
8172;DHT22;4127;47.908;10.850;2022-12-11T06:48:32;-3.10;99.90
8172;DHT22;4127;47.908;10.850;2022-12-11T06:51:03;-3.00;99.90
8172;DHT22;4127;47.908;10.850;2022-12-11T06:53:30;-3.00;99.90
8172;DHT22;4127;47.908;10.850;2022-12-11T06:56:04;-3.00;99.90
8172;DHT22;4127;47.908;10.850;2022-12-11T06:58:33;-3.00;99.90
8172;DHT22;4127;47.908;10.850;2022-12-11T07:01:00;-3.00;99.90
8172;DHT22;4127;47.908;10.850;2022-12-11T07:03:28;-3.00;99.90
8172;DHT22;4127;47.908;10.850;2022-12-11T07:05:59;-3.00;99.90
8172;DHT22;4127;47.908;10.850;2022-12-11T07:08:27;-3.00;99.90
8172;DHT22;4127;47.908;10.850;2022-12-11T07:11:00;-3.00;99.90
8172;DHT22;4127;47.908;10.850;2022-12-11T07:13:27;-3.00;99.90
8172;DHT22;4127;47.908;10.850;2022-12-11T07:15:53;-3.00;99.90
8172;DHT22;4127;47.908;10.850;2022-12-11T07:18:20;-3.00;99.90
8172;DHT22;4127;47.908;10.850;2022-12-11T07:20:47;-2.90;99.90
8172;DHT22;4127;47.908;10.850;2022-12-11T07:23:14;-2.70;99.90
8172;DHT22;4127;47.908;10.850;2022-12-11T07:25:40;-2.80;99.90
8172;DHT22;4127;47.908;10.850;2022-12-11T07:28:07;-2.90;99.90
8172;DHT22;4127;47.908;10.850;2022-12-11T07:30:42;-2.90;99.90
8172;DHT22;4127;47.908;10.850;2022-12-11T07:33:09;-3.00;99.90
8172;DHT22;4127;47.908;10.850;2022-12-11T07:35:35;-3.10;99.90
8172;DHT22;4127;47.908;10.850;2022-12-11T07:38:04;-3.20;99.90
8172;DHT22;4127;47.908;10.850;2022-12-11T07:40:32;-3.40;99.90
8172;DHT22;4127;47.908;10.850;2022-12-11T07:42:59;-3.60;99.90
8172;DHT22;4127;47.908;10.850;2022-12-11T07:45:26;-3.70;99.90
8172;DHT22;4127;47.908;10.850;2022-12-11T07:47:53;-3.80;99.90
8172;DHT22;4127;47.908;10.850;2022-12-11T07:50:19;-3.90;99.90
8172;DHT22;4127;47.908;10.850;2022-12-11T07:52:46;-4.00;99.90
8172;DHT22;4127;47.908;10.850;2022-12-11T07:55:13;-4.10;99.90
8172;DHT22;4127;47.908;10.850;2022-12-11T07:57:40;-4.30;99.90
8172;DHT22;4127;47.908;10.850;2022-12-11T08:00:07;-4.30;99.90
8172;DHT22;4127;47.908;10.850;2022-12-11T08:02:34;-4.20;99.90
8172;DHT22;4127;47.908;10.850;2022-12-11T08:05:03;-4.20;99.90
8172;DHT22;4127;47.908;10.850;2022-12-11T08:23:54;-4.40;99.90
8172;DHT22;4127;47.908;10.850;2022-12-11T08:28:52;-4.50;99.90
8172;DHT22;4127;47.908;10.850;2022-12-11T08:31:19;-4.40;99.90
8172;DHT22;4127;47.908;10.850;2022-12-11T08:33:48;-4.30;99.90
8172;DHT22;4127;47.908;10.850;2022-12-11T08:36:20;-4.10;99.90
8172;DHT22;4127;47.908;10.850;2022-12-11T08:38:49;-4.10;99.90
8172;DHT22;4127;47.908;10.850;2022-12-11T08:41:18;-4.10;99.90
8172;DHT22;4127;47.908;10.850;2022-12-11T08:43:46;-3.90;99.90
8172;DHT22;4127;47.908;10.850;2022-12-11T08:46:14;-3.70;99.90
8172;DHT22;4127;47.908;10.850;2022-12-11T08:48:42;-3.50;99.90
8172;DHT22;4127;47.908;10.850;2022-12-11T08:51:14;-3.20;99.90
8172;DHT22;4127;47.908;10.850;2022-12-11T08:53:41;-3.00;99.90
8172;DHT22;4127;47.908;10.850;2022-12-11T08:56:10;-3.00;99.90
8172;DHT22;4127;47.908;10.850;2022-12-11T08:58:37;-3.00;99.90
8172;DHT22;4127;47.908;10.850;2022-12-11T09:01:15;-2.80;99.90
8172;DHT22;4127;47.908;10.850;2022-12-11T09:03:43;-2.70;99.90
8172;DHT22;4127;47.908;10.850;2022-12-11T09:06:12;-2.80;99.90
8172;DHT22;4127;47.908;10.850;2022-12-11T09:08:40;-2.80;99.90
8172;DHT22;4127;47.908;10.850;2022-12-11T09:11:18;-2.60;99.90
8172;DHT22;4127;47.908;10.850;2022-12-11T09:13:45;-2.50;99.90
8172;DHT22;4127;47.908;10.850;2022-12-11T09:16:14;-2.30;99.90
8172;DHT22;4127;47.908;10.850;2022-12-11T09:18:42;-2.10;99.90
8172;DHT22;4127;47.908;10.850;2022-12-11T09:21:16;-2.00;99.90
8172;DHT22;4127;47.908;10.850;2022-12-11T09:23:44;-1.90;99.90
8172;DHT22;4127;47.908;10.850;2022-12-11T09:26:14;-2.00;99.90
8172;DHT22;4127;47.908;10.850;2022-12-11T09:28:41;-1.80;99.90
8172;DHT22;4127;47.908;10.850;2022-12-11T09:31:27;-1.60;99.90
8172;DHT22;4127;47.908;10.850;2022-12-11T09:33:56;-1.70;99.90
8172;DHT22;4127;47.908;10.850;2022-12-11T09:36:24;-1.70;99.90
8172;DHT22;4127;47.908;10.850;2022-12-11T09:38:51;-1.60;99.90
8172;DHT22;4127;47.908;10.850;2022-12-11T09:46:27;-1.50;99.90
8172;DHT22;4127;47.908;10.850;2022-12-11T09:49:01;-1.50;99.90
8172;DHT22;4127;47.908;10.850;2022-12-11T09:51:35;-1.50;99.90
8172;DHT22;4127;47.908;10.850;2022-12-11T09:54:05;-1.40;99.90
8172;DHT22;4127;47.908;10.850;2022-12-11T09:56:40;-1.40;99.90
8172;DHT22;4127;47.908;10.850;2022-12-11T09:59:23;-1.30;99.90
8172;DHT22;4127;47.908;10.850;2022-12-11T10:08:22;-1.20;99.90
8172;DHT22;4127;47.908;10.850;2022-12-11T10:16:43;-1.40;99.90
8172;DHT22;4127;47.908;10.850;2022-12-11T10:19:19;-1.30;99.90
8172;DHT22;4127;47.908;10.850;2022-12-11T10:21:48;-1.20;99.90
8172;DHT22;4127;47.908;10.850;2022-12-11T10:27:39;-1.10;99.90
8172;DHT22;4127;47.908;10.850;2022-12-11T10:35:53;-1.00;99.90
8172;DHT22;4127;47.908;10.850;2022-12-11T10:38:31;-1.00;99.90
8172;DHT22;4127;47.908;10.850;2022-12-11T10:41:05;-1.00;99.90
8172;DHT22;4127;47.908;10.850;2022-12-11T10:43:37;-0.90;99.90
8172;DHT22;4127;47.908;10.850;2022-12-11T10:46:11;-0.90;99.90
8172;DHT22;4127;47.908;10.850;2022-12-11T10:48:53;-0.50;99.90
8172;DHT22;4127;47.908;10.850;2022-12-11T10:54:51;-0.10;99.90
8172;DHT22;4127;47.908;10.850;2022-12-11T10:56:48;-0.10;99.90
8172;DHT22;4127;47.908;10.850;2022-12-11T11:00:24;-0.10;99.90
8172;DHT22;4127;47.908;10.850;2022-12-11T11:04:53;-0.30;99.90
8172;DHT22;4127;47.908;10.850;2022-12-11T11:07:29;-0.40;99.90
8172;DHT22;4127;47.908;10.850;2022-12-11T11:10:25;-0.20;99.90
8172;DHT22;4127;47.908;10.850;2022-12-11T11:13:00;-0.30;99.90
8172;DHT22;4127;47.908;10.850;2022-12-11T11:15:29;-0.50;99.90
8172;DHT22;4127;47.908;10.850;2022-12-11T11:18:23;-0.80;99.90
8172;DHT22;4127;47.908;10.850;2022-12-11T11:20:53;-0.90;99.90
8172;DHT22;4127;47.908;10.850;2022-12-11T11:23:21;-1.10;99.90
8172;DHT22;4127;47.908;10.850;2022-12-11T11:25:52;-1.30;99.90
8172;DHT22;4127;47.908;10.850;2022-12-11T11:29:00;-1.60;99.90
8172;DHT22;4127;47.908;10.850;2022-12-11T11:31:32;-1.70;99.90
8172;DHT22;4127;47.908;10.850;2022-12-11T11:34:04;-1.80;99.90
8172;DHT22;4127;47.908;10.850;2022-12-11T11:36:34;-1.80;99.90
8172;DHT22;4127;47.908;10.850;2022-12-11T11:39:12;-1.70;99.90
8172;DHT22;4127;47.908;10.850;2022-12-11T11:42:17;-1.80;99.90
8172;DHT22;4127;47.908;10.850;2022-12-11T11:45:00;-1.80;99.90
8172;DHT22;4127;47.908;10.850;2022-12-11T11:47:38;-1.70;99.90
8172;DHT22;4127;47.908;10.850;2022-12-11T11:50:10;-1.80;99.90
8172;DHT22;4127;47.908;10.850;2022-12-11T11:52:57;-1.90;99.90
8172;DHT22;4127;47.908;10.850;2022-12-11T11:55:39;-1.90;99.90
8172;DHT22;4127;47.908;10.850;2022-12-11T12:01:18;-1.60;99.90
8172;DHT22;4127;47.908;10.850;2022-12-11T12:03:48;-1.30;99.90
8172;DHT22;4127;47.908;10.850;2022-12-11T12:06:21;-1.10;99.90
8172;DHT22;4127;47.908;10.850;2022-12-11T12:14:34;-1.30;99.90
8172;DHT22;4127;47.908;10.850;2022-12-11T12:17:25;-1.40;99.90
8172;DHT22;4127;47.908;10.850;2022-12-11T12:25:36;-1.40;99.90
8172;DHT22;4127;47.908;10.850;2022-12-11T12:28:09;-1.20;99.90
8172;DHT22;4127;47.908;10.850;2022-12-11T12:30:53;-1.10;99.90
8172;DHT22;4127;47.908;10.850;2022-12-11T12:34:01;-1.30;99.90
8172;DHT22;4127;47.908;10.850;2022-12-11T12:42:25;-1.30;99.90
8172;DHT22;4127;47.908;10.850;2022-12-11T12:44:59;-1.30;99.90
8172;DHT22;4127;47.908;10.850;2022-12-11T12:47:30;-1.20;99.90
8172;DHT22;4127;47.908;10.850;2022-12-11T12:49:59;-1.10;99.90
8172;DHT22;4127;47.908;10.850;2022-12-11T12:52:35;-1.10;99.90
8172;DHT22;4127;47.908;10.850;2022-12-11T12:55:26;-1.10;99.90
8172;DHT22;4127;47.908;10.850;2022-12-11T12:58:00;-1.10;99.90
8172;DHT22;4127;47.908;10.850;2022-12-11T13:00:31;-1.20;99.90
8172;DHT22;4127;47.908;10.850;2022-12-11T13:03:12;-1.40;99.90
8172;DHT22;4127;47.908;10.850;2022-12-11T13:05:42;-1.20;99.90
8172;DHT22;4127;47.908;10.850;2022-12-11T13:08:10;-1.10;99.90
8172;DHT22;4127;47.908;10.850;2022-12-11T13:10:39;-1.00;99.90
8172;DHT22;4127;47.908;10.850;2022-12-11T13:13:32;-1.10;99.90
8172;DHT22;4127;47.908;10.850;2022-12-11T13:18:46;-1.10;99.90
8172;DHT22;4127;47.908;10.850;2022-12-11T13:21:32;-1.30;99.90
8172;DHT22;4127;47.908;10.850;2022-12-11T13:24:14;-1.40;99.90
8172;DHT22;4127;47.908;10.850;2022-12-11T13:26:41;-1.30;99.90
8172;DHT22;4127;47.908;10.850;2022-12-11T13:29:37;-1.40;99.90
8172;DHT22;4127;47.908;10.850;2022-12-11T13:32:18;-1.40;99.90
8172;DHT22;4127;47.908;10.850;2022-12-11T13:34:58;-1.50;99.90
8172;DHT22;4127;47.908;10.850;2022-12-11T13:37:34;-1.30;99.90
8172;DHT22;4127;47.908;10.850;2022-12-11T13:40:05;-1.20;99.90
8172;DHT22;4127;47.908;10.850;2022-12-11T13:42:39;-0.90;99.90
8172;DHT22;4127;47.908;10.850;2022-12-11T13:45:18;-0.80;99.90
8172;DHT22;4127;47.908;10.850;2022-12-11T13:47:47;-0.80;99.90
8172;DHT22;4127;47.908;10.850;2022-12-11T13:50:19;-0.80;99.90
8172;DHT22;4127;47.908;10.850;2022-12-11T13:53:01;-0.80;99.90
8172;DHT22;4127;47.908;10.850;2022-12-11T13:55:31;-0.90;99.90
8172;DHT22;4127;47.908;10.850;2022-12-11T13:57:59;-0.70;99.90
8172;DHT22;4127;47.908;10.850;2022-12-11T14:00:30;-0.70;99.90
8172;DHT22;4127;47.908;10.850;2022-12-11T14:03:02;-0.80;99.90
8172;DHT22;4127;47.908;10.850;2022-12-11T14:05:30;-1.00;99.90
8172;DHT22;4127;47.908;10.850;2022-12-11T14:07:58;-1.30;99.90
8172;DHT22;4127;47.908;10.850;2022-12-11T14:10:31;-1.40;99.90
8172;DHT22;4127;47.908;10.850;2022-12-11T14:13:00;-1.50;99.90
8172;DHT22;4127;47.908;10.850;2022-12-11T14:15:28;-1.70;99.90
8172;DHT22;4127;47.908;10.850;2022-12-11T14:17:56;-1.70;99.90
8172;DHT22;4127;47.908;10.850;2022-12-11T14:20:32;-1.80;99.90
8172;DHT22;4127;47.908;10.850;2022-12-11T14:23:06;-1.80;99.90
8172;DHT22;4127;47.908;10.850;2022-12-11T14:25:33;-1.90;99.90
8172;DHT22;4127;47.908;10.850;2022-12-11T14:28:00;-2.00;99.90
8172;DHT22;4127;47.908;10.850;2022-12-11T14:30:29;-2.10;99.90
8172;DHT22;4127;47.908;10.850;2022-12-11T14:33:03;-2.10;99.90
8172;DHT22;4127;47.908;10.850;2022-12-11T14:35:38;-2.10;99.90
8172;DHT22;4127;47.908;10.850;2022-12-11T14:38:26;-2.10;99.90
8172;DHT22;4127;47.908;10.850;2022-12-11T14:41:00;-2.00;99.90
8172;DHT22;4127;47.908;10.850;2022-12-11T14:43:35;-2.10;99.90
8172;DHT22;4127;47.908;10.850;2022-12-11T14:46:09;-2.20;99.90
8172;DHT22;4127;47.908;10.850;2022-12-11T14:48:43;-2.30;99.90
8172;DHT22;4127;47.908;10.850;2022-12-11T14:51:14;-2.40;99.90
8172;DHT22;4127;47.908;10.850;2022-12-11T14:53:45;-2.50;99.90
8172;DHT22;4127;47.908;10.850;2022-12-11T14:56:17;-2.60;99.90
8172;DHT22;4127;47.908;10.850;2022-12-11T14:59:04;-2.70;99.90
8172;DHT22;4127;47.908;10.850;2022-12-11T15:04:14;-2.90;99.90
8172;DHT22;4127;47.908;10.850;2022-12-11T15:06:46;-3.10;99.90
8172;DHT22;4127;47.908;10.850;2022-12-11T15:11:48;-3.30;99.90
8172;DHT22;4127;47.908;10.850;2022-12-11T15:14:18;-3.40;99.90
8172;DHT22;4127;47.908;10.850;2022-12-11T15:16:47;-3.40;99.90
8172;DHT22;4127;47.908;10.850;2022-12-11T15:19:27;-3.30;99.90
8172;DHT22;4127;47.908;10.850;2022-12-11T15:22:00;-3.40;99.90
8172;DHT22;4127;47.908;10.850;2022-12-11T15:24:38;-3.50;99.90
8172;DHT22;4127;47.908;10.850;2022-12-11T15:27:23;-3.40;99.90
8172;DHT22;4127;47.908;10.850;2022-12-11T15:29:51;-3.40;99.90
8172;DHT22;4127;47.908;10.850;2022-12-11T15:32:19;-3.30;99.90
8172;DHT22;4127;47.908;10.850;2022-12-11T15:39:47;-3.80;99.90
8172;DHT22;4127;47.908;10.850;2022-12-11T15:42:56;-3.80;99.90
8172;DHT22;4127;47.908;10.850;2022-12-11T16:01:46;-3.60;99.90
8172;DHT22;4127;47.908;10.850;2022-12-11T16:04:45;-3.60;99.90
8172;DHT22;4127;47.908;10.850;2022-12-11T16:12:44;-4.10;99.90
8172;DHT22;4127;47.908;10.850;2022-12-11T16:16:06;-4.50;99.90
8172;DHT22;4127;47.908;10.850;2022-12-11T16:19:23;-4.50;99.90
8172;DHT22;4127;47.908;10.850;2022-12-11T16:26:22;-4.50;99.90
8172;DHT22;4127;47.908;10.850;2022-12-11T16:30:00;-4.50;99.90
8172;DHT22;4127;47.908;10.850;2022-12-11T16:33:23;-4.30;99.90
8172;DHT22;4127;47.908;10.850;2022-12-11T16:39:38;-4.10;99.90
8172;DHT22;4127;47.908;10.850;2022-12-11T16:42:05;-4.00;99.90
8172;DHT22;4127;47.908;10.850;2022-12-11T16:48:35;-3.90;99.90
8172;DHT22;4127;47.908;10.850;2022-12-11T16:51:31;-3.90;99.90
8172;DHT22;4127;47.908;10.850;2022-12-11T16:54:50;-3.90;99.90
8172;DHT22;4127;47.908;10.850;2022-12-11T16:58:06;-3.90;99.90
8172;DHT22;4127;47.908;10.850;2022-12-11T17:01:27;-3.90;99.90
8172;DHT22;4127;47.908;10.850;2022-12-11T17:04:34;-3.90;99.90
8172;DHT22;4127;47.908;10.850;2022-12-11T17:07:48;-3.80;99.90
8172;DHT22;4127;47.908;10.850;2022-12-11T17:14:05;-3.70;99.90
8172;DHT22;4127;47.908;10.850;2022-12-11T17:21:26;-3.70;99.90
8172;DHT22;4127;47.908;10.850;2022-12-11T17:25:20;-3.60;99.90
8172;DHT22;4127;47.908;10.850;2022-12-11T17:28:22;-3.60;99.90
8172;DHT22;4127;47.908;10.850;2022-12-11T17:34:29;-3.50;99.90
8172;DHT22;4127;47.908;10.850;2022-12-11T17:48:46;-3.60;99.90
8172;DHT22;4127;47.908;10.850;2022-12-11T17:59:20;-3.80;99.90
8172;DHT22;4127;47.908;10.850;2022-12-11T18:03:06;-3.80;99.90
8172;DHT22;4127;47.908;10.850;2022-12-11T18:06:05;-3.90;99.90
8172;DHT22;4127;47.908;10.850;2022-12-11T18:09:18;-3.90;99.90
8172;DHT22;4127;47.908;10.850;2022-12-11T18:20:40;-4.10;99.90
8172;DHT22;4127;47.908;10.850;2022-12-11T18:24:14;-4.10;99.90
8172;DHT22;4127;47.908;10.850;2022-12-11T18:27:17;-4.10;99.90
8172;DHT22;4127;47.908;10.850;2022-12-11T18:30:35;-4.10;99.90
8172;DHT22;4127;47.908;10.850;2022-12-11T18:33:41;-4.10;99.90
8172;DHT22;4127;47.908;10.850;2022-12-11T18:40:56;-4.30;99.90
8172;DHT22;4127;47.908;10.850;2022-12-11T19:09:31;-4.90;99.90
8172;DHT22;4127;47.908;10.850;2022-12-11T19:12:44;-5.00;99.90
8172;DHT22;4127;47.908;10.850;2022-12-11T19:15:23;-5.10;99.90
8172;DHT22;4127;47.908;10.850;2022-12-11T19:17:52;-5.20;99.90
8172;DHT22;4127;47.908;10.850;2022-12-11T19:20:25;-5.20;99.90
8172;DHT22;4127;47.908;10.850;2022-12-11T19:26:14;-5.20;99.90
8172;DHT22;4127;47.908;10.850;2022-12-11T19:29:29;-5.20;99.90
8172;DHT22;4127;47.908;10.850;2022-12-11T19:32:06;-5.20;99.90
8172;DHT22;4127;47.908;10.850;2022-12-11T19:34:33;-5.30;99.90
8172;DHT22;4127;47.908;10.850;2022-12-11T19:37:00;-5.30;99.90
8172;DHT22;4127;47.908;10.850;2022-12-11T19:40:02;-5.20;99.90
8172;DHT22;4127;47.908;10.850;2022-12-11T19:42:51;-5.20;99.90
8172;DHT22;4127;47.908;10.850;2022-12-11T19:45:25;-5.10;99.90
8172;DHT22;4127;47.908;10.850;2022-12-11T19:51:37;-5.00;99.90
8172;DHT22;4127;47.908;10.850;2022-12-11T19:54:06;-4.90;99.90
8172;DHT22;4127;47.908;10.850;2022-12-11T19:56:48;-4.90;99.90
8172;DHT22;4127;47.908;10.850;2022-12-11T19:59:19;-4.90;99.90
8172;DHT22;4127;47.908;10.850;2022-12-11T20:01:54;-4.90;99.90
8172;DHT22;4127;47.908;10.850;2022-12-11T20:04:47;-4.90;99.90
8172;DHT22;4127;47.908;10.850;2022-12-11T20:07:14;-4.90;99.90
8172;DHT22;4127;47.908;10.850;2022-12-11T20:09:41;-4.80;99.90
8172;DHT22;4127;47.908;10.850;2022-12-11T20:12:11;-4.70;99.90